Time;durP1;ratioP1;P1;durP2;ratioP2;P2;SDS_P1;SDS_P2;PMS_P1;PMS_P2;Temp;Humidity;BMP_temperature;BMP_pressure;BME280_temperature;BME280_humidity;BME280_pressure;Samples;Min_cycle;Max_cycle;Signal;HPM_P1;HPM_P2
2022/05/14 00:01:36;;;;;;;17.05;5.05;;;12.30;99.90;;;;;;5093194;28;20075;-75
2022/05/14 00:04:03;;;;;;;18.13;4.75;;;12.30;99.90;;;;;;5093407;28;20376;-70
2022/05/14 00:06:30;;;;;;;24.08;4.95;;;12.20;99.90;;;;;;5093262;28;20051;-75
2022/05/14 00:08:56;;;;;;;31.23;5.10;;;12.30;99.90;;;;;;5093517;28;20108;-74
2022/05/14 00:14:08;;;;;;;23.05;5.13;;;12.30;99.90;;;;;;5093186;28;20084;-77
2022/05/14 00:16:36;;;;;;;20.65;5.30;;;12.20;99.90;;;;;;5092395;28;20058;-71
2022/05/14 00:19:04;;;;;;;18.08;4.78;;;12.20;99.90;;;;;;5093422;28;20036;-74
2022/05/14 00:21:29;;;;;;;18.35;4.70;;;12.20;99.90;;;;;;5093181;28;20044;-75
2022/05/14 00:23:58;;;;;;;22.75;5.13;;;12.20;99.90;;;;;;5092524;28;20046;-76
2022/05/14 00:26:24;;;;;;;28.42;5.18;;;12.20;99.90;;;;;;5092769;28;20051;-76
2022/05/14 00:28:50;;;;;;;21.52;5.18;;;12.30;99.90;;;;;;5092929;28;20531;-74
2022/05/14 00:31:16;;;;;;;18.42;4.30;;;12.20;99.90;;;;;;5092779;28;20095;-75
2022/05/14 00:33:42;;;;;;;21.48;5.28;;;12.20;99.90;;;;;;5092569;28;20036;-73
2022/05/14 00:36:08;;;;;;;22.95;5.72;;;12.10;99.90;;;;;;5092452;28;20824;-73
2022/05/14 00:38:33;;;;;;;30.25;6.10;;;12.10;99.90;;;;;;5091892;28;20044;-72
2022/05/14 00:41:05;;;;;;;26.98;5.65;;;12.10;99.90;;;;;;5092636;28;20036;-72
2022/05/14 00:43:33;;;;;;;23.08;5.25;;;12.10;99.90;;;;;;5074600;28;20044;-72
2022/05/14 00:46:07;;;;;;;27.35;5.25;;;12.10;99.90;;;;;;5092359;28;20495;-73
2022/05/14 00:48:38;;;;;;;18.90;5.55;;;12.00;99.90;;;;;;5092335;28;20040;-68
2022/05/14 00:51:07;;;;;;;26.20;6.10;;;12.00;99.90;;;;;;5092603;28;20054;-73
2022/05/14 00:53:35;;;;;;;22.20;5.40;;;12.00;99.90;;;;;;5092532;28;20047;-70
2022/05/14 00:56:05;;;;;;;29.05;6.10;;;11.90;99.90;;;;;;5074087;28;20101;-73
2022/05/14 00:58:50;;;;;;;27.23;5.25;;;11.90;99.90;;;;;;5092376;28;20080;-73
2022/05/14 01:01:16;;;;;;;;;;;11.90;99.90;;;;;;5093191;28;20050;-73
2022/05/14 01:03:42;;;;;;;23.55;5.47;;;11.90;99.90;;;;;;5092268;28;20310;-74
2022/05/14 01:06:12;;;;;;;26.25;6.35;;;11.80;99.90;;;;;;5092211;28;20463;-74
2022/05/14 01:08:39;;;;;;;25.35;6.07;;;11.90;99.90;;;;;;5092245;28;20789;-72
2022/05/14 01:11:05;;;;;;;33.40;6.70;;;11.90;99.90;;;;;;5092173;28;20090;-73
2022/05/14 01:13:31;;;;;;;23.65;6.30;;;11.90;99.90;;;;;;5074229;28;20047;-73
2022/05/14 01:16:00;;;;;;;26.85;5.88;;;11.90;99.90;;;;;;5092270;28;20376;-72
2022/05/14 01:18:28;;;;;;;28.15;7.15;;;11.80;99.90;;;;;;5091517;28;20040;-73
2022/05/14 01:21:21;;;;;;;27.65;6.70;;;11.90;99.90;;;;;;5091986;28;20127;-74
2022/05/14 01:26:41;;;;;;;27.52;6.18;;;11.90;99.90;;;;;;5092021;28;20059;-75
2022/05/14 01:29:11;;;;;;;31.02;6.78;;;11.90;99.90;;;;;;5092070;28;20039;-74
2022/05/14 01:31:38;;;;;;;23.02;5.65;;;11.80;99.90;;;;;;5091893;28;20044;-74
2022/05/14 01:34:08;;;;;;;36.70;6.88;;;11.80;99.90;;;;;;5091084;28;20040;-70
2022/05/14 01:36:37;;;;;;;25.48;6.75;;;11.80;99.90;;;;;;5091369;28;20476;-72
2022/05/14 01:39:04;;;;;;;30.70;6.72;;;11.80;99.90;;;;;;5074123;28;20403;-72
2022/05/14 01:41:29;;;;;;;23.05;6.47;;;11.70;99.90;;;;;;5073979;28;20101;-73
2022/05/14 01:43:55;;;;;;;25.98;6.63;;;11.70;99.90;;;;;;5091584;28;20044;-72
2022/05/14 01:46:21;;;;;;;31.77;7.03;;;11.70;99.90;;;;;;5090781;28;20092;-71
2022/05/14 01:48:47;;;;;;;26.08;6.80;;;11.70;99.90;;;;;;5090891;28;20115;-72
2022/05/14 01:51:13;;;;;;;30.35;6.63;;;11.70;99.90;;;;;;5091148;28;20467;-73
2022/05/14 01:53:38;;;;;;;35.65;6.43;;;11.70;99.90;;;;;;5091500;28;20086;-70
2022/05/14 01:56:04;;;;;;;30.05;6.57;;;11.70;99.90;;;;;;5090872;28;20036;-71
2022/05/14 01:58:36;;;;;;;40.53;8.02;;;11.60;99.90;;;;;;5091199;28;20071;-72
2022/05/14 02:01:09;;;;;;;27.63;7.35;;;11.60;99.90;;;;;;5091176;28;20059;-73
2022/05/14 02:03:35;;;;;;;30.70;7.10;;;11.60;99.90;;;;;;5090944;28;20071;-73
2022/05/14 02:06:01;;;;;;;33.38;7.32;;;11.50;99.90;;;;;;5090544;28;20051;-72
2022/05/14 02:08:26;;;;;;;27.55;6.65;;;11.50;99.90;;;;;;5090926;28;20040;-73
2022/05/14 02:10:52;;;;;;;42.83;7.63;;;11.40;99.90;;;;;;5073099;28;20043;-72
2022/05/14 02:13:18;;;;;;;35.05;7.20;;;11.50;99.90;;;;;;5090962;28;20514;-70
2022/05/14 02:15:43;;;;;;;30.50;7.20;;;11.30;99.90;;;;;;5090848;28;20118;-73
2022/05/14 02:18:10;;;;;;;31.23;7.32;;;11.30;99.90;;;;;;5072394;28;20532;-73
2022/05/14 02:20:36;;;;;;;36.08;7.13;;;11.40;99.90;;;;;;5090209;28;20490;-73
2022/05/14 02:23:01;;;;;;;37.75;7.72;;;11.30;99.90;;;;;;5090946;28;20040;-73
2022/05/14 02:25:27;;;;;;;26.27;6.47;;;11.20;99.90;;;;;;5090914;28;20403;-74
2022/05/14 02:27:53;;;;;;;29.40;6.93;;;11.20;99.90;;;;;;5090130;28;20834;-74
2022/05/14 02:30:18;;;;;;;31.38;7.00;;;11.20;99.90;;;;;;5090725;28;20047;-72
2022/05/14 02:32:44;;;;;;;32.50;7.50;;;11.20;99.90;;;;;;5090512;28;20507;-70
2022/05/14 02:35:10;;;;;;;35.53;7.60;;;11.10;99.90;;;;;;5090435;28;20159;-72
2022/05/14 02:37:35;;;;;;;31.98;7.32;;;11.10;99.90;;;;;;5089967;28;20093;-71
2022/05/14 02:40:01;;;;;;;38.53;8.40;;;11.00;99.90;;;;;;5072240;28;20051;-71
2022/05/14 02:42:27;;;;;;;26.75;7.55;;;11.10;99.90;;;;;;5090596;28;20108;-74
2022/05/14 02:44:52;;;;;;;36.15;8.18;;;11.00;99.90;;;;;;5090524;28;20128;-73
2022/05/14 02:47:18;;;;;;;29.88;7.40;;;11.00;99.90;;;;;;5090263;28;20048;-73
2022/05/14 02:49:44;;;;;;;31.30;7.47;;;11.10;99.90;;;;;;5089988;28;20395;-75
2022/05/14 02:52:11;;;;;;;35.78;7.55;;;11.10;99.90;;;;;;5089913;28;20040;-73
2022/05/14 02:54:37;;;;;;;40.38;8.48;;;10.90;99.90;;;;;;5090287;28;20085;-74
2022/05/14 02:57:04;;;;;;;34.72;7.72;;;10.90;99.90;;;;;;5090458;28;20048;-74
2022/05/14 02:59:29;;;;;;;33.33;7.80;;;10.80;99.90;;;;;;5089992;28;20048;-74
2022/05/14 03:01:56;;;;;;;36.63;9.77;;;10.80;99.90;;;;;;5093785;28;20040;-73
2022/05/14 03:04:25;;;;;;;32.35;7.55;;;10.80;99.90;;;;;;5094408;28;20042;-74
2022/05/14 03:06:53;;;;;;;42.00;8.80;;;10.80;99.90;;;;;;5093691;28;20063;-74
2022/05/14 03:09:20;;;;;;;44.00;8.93;;;10.80;99.90;;;;;;5094669;28;20044;-72
2022/05/14 03:11:45;;;;;;;40.78;8.43;;;10.80;99.90;;;;;;5094392;28;20434;-74
2022/05/14 03:14:12;;;;;;;38.72;8.32;;;10.80;99.90;;;;;;5076034;28;20109;-73
2022/05/14 03:16:39;;;;;;;37.53;9.00;;;10.70;99.90;;;;;;5093946;28;20137;-73
2022/05/14 03:19:05;;;;;;;40.47;8.88;;;10.70;99.90;;;;;;5094171;28;20369;-74
2022/05/14 03:21:30;;;;;;;33.38;7.85;;;10.70;99.90;;;;;;5094223;28;20100;-74
2022/05/14 03:23:56;;;;;;;34.92;8.38;;;10.70;99.90;;;;;;5093963;28;20040;-73
2022/05/14 03:26:22;;;;;;;37.45;8.75;;;10.60;99.90;;;;;;5093911;28;20051;-72
2022/05/14 03:28:48;;;;;;;36.13;9.00;;;10.60;99.90;;;;;;5093793;28;20048;-73
2022/05/14 03:31:14;;;;;;;33.58;8.88;;;10.60;99.90;;;;;;5094049;28;20044;-72
2022/05/14 03:33:40;;;;;;;44.55;8.68;;;10.60;99.90;;;;;;5093861;28;20128;-74
2022/05/14 03:36:06;;;;;;;31.80;8.70;;;10.50;99.90;;;;;;5093348;28;20078;-72
2022/05/14 03:38:32;;;;;;;36.90;9.15;;;10.50;99.90;;;;;;5093775;28;20055;-74
2022/05/14 03:40:58;;;;;;;43.83;9.50;;;10.50;99.90;;;;;;5093853;28;20048;-74
2022/05/14 03:43:23;;;;;;;47.13;9.60;;;10.70;99.90;;;;;;5093734;28;20515;-73
2022/05/14 03:45:49;;;;;;;33.88;8.77;;;10.50;99.90;;;;;;5075102;28;20384;-71
2022/05/14 03:48:15;;;;;;;29.85;8.63;;;10.50;99.90;;;;;;5093581;28;20063;-74
2022/05/14 03:50:40;;;;;;;46.63;9.63;;;10.60;99.90;;;;;;5093750;28;20047;-72
2022/05/14 03:53:07;;;;;;;39.30;8.93;;;10.40;99.90;;;;;;5093771;28;20040;-74
2022/05/14 03:55:33;;;;;;;47.85;10.57;;;10.50;99.90;;;;;;5074947;28;20052;-73
2022/05/14 03:57:59;;;;;;;41.05;9.35;;;10.50;99.90;;;;;;5093404;28;20380;-73
2022/05/14 04:00:24;;;;;;;42.33;10.57;;;10.50;99.90;;;;;;5093468;28;20055;-72
2022/05/14 04:02:50;;;;;;;31.75;9.35;;;10.60;99.90;;;;;;5092917;28;20057;-73
2022/05/14 04:05:16;;;;;;;45.55;10.55;;;10.60;99.90;;;;;;5093312;28;20046;-74
2022/05/14 04:07:43;;;;;;;39.55;10.40;;;10.60;99.90;;;;;;5093101;28;20067;-71
2022/05/14 04:10:12;;;;;;;44.13;9.70;;;10.60;99.90;;;;;;5093122;28;20072;-73
2022/05/14 04:12:38;;;;;;;44.30;10.50;;;10.60;99.90;;;;;;5092350;28;20044;-74
2022/05/14 04:15:04;;;;;;;52.83;10.50;;;10.60;99.90;;;;;;5093566;28;20444;-73
2022/05/14 04:17:30;;;;;;;44.38;10.10;;;10.60;99.90;;;;;;5093479;28;20055;-73
2022/05/14 04:19:56;;;;;;;42.95;10.43;;;10.70;99.90;;;;;;5093193;28;20063;-74
2022/05/14 04:22:21;;;;;;;54.55;10.57;;;10.60;99.90;;;;;;5092885;28;20066;-73
2022/05/14 04:24:48;;;;;;;41.55;10.32;;;10.60;99.90;;;;;;5092376;28;20039;-74
2022/05/14 04:27:13;;;;;;;40.85;9.75;;;10.70;99.90;;;;;;5092989;28;20050;-74
2022/05/14 04:29:39;;;;;;;38.53;9.75;;;10.70;99.90;;;;;;5092913;28;20040;-74
2022/05/14 04:32:05;;;;;;;43.85;10.10;;;10.70;99.90;;;;;;5092920;28;20190;-74
2022/05/14 04:34:31;;;;;;;41.47;9.52;;;10.70;99.90;;;;;;5092227;28;20456;-69
2022/05/14 04:36:56;;;;;;;50.03;10.30;;;10.70;99.90;;;;;;5092639;28;20089;-74
2022/05/14 04:39:31;;;;;;;37.08;9.32;;;10.70;99.90;;;;;;5092159;28;20044;-74
2022/05/14 04:41:59;;;;;;;36.72;9.90;;;10.70;99.90;;;;;;5092638;28;20055;-74
2022/05/14 04:44:24;;;;;;;38.42;9.55;;;10.80;99.90;;;;;;5092280;28;20044;-74
2022/05/14 04:46:50;;;;;;;44.75;9.27;;;10.80;99.90;;;;;;5092290;28;20098;-73
2022/05/14 04:49:16;;;;;;;41.50;9.95;;;10.80;99.90;;;;;;5092436;28;20051;-74
2022/05/14 04:51:42;;;;;;;44.72;10.45;;;10.90;99.90;;;;;;5092162;28;20106;-74
2022/05/14 04:54:07;;;;;;;41.85;9.02;;;10.90;99.90;;;;;;5092535;28;20540;-74
2022/05/14 04:56:33;;;;;;;36.63;9.35;;;11.00;99.90;;;;;;5091813;28;20055;-74
2022/05/14 04:58:58;;;;;;;49.10;9.27;;;11.00;99.90;;;;;;5092022;28;20071;-74
2022/05/14 05:01:24;;;;;;;42.03;10.75;;;11.10;99.90;;;;;;5074023;28;20059;-72
2022/05/14 05:03:50;;;;;;;43.55;9.73;;;11.10;99.90;;;;;;5092129;28;20040;-74
2022/05/14 05:06:18;;;;;;;49.35;9.38;;;11.20;99.90;;;;;;5073473;28;20052;-74
2022/05/14 05:08:44;;;;;;;45.75;9.52;;;11.20;99.90;;;;;;5091950;28;20048;-74
2022/05/14 05:11:10;;;;;;;52.17;10.73;;;11.30;99.90;;;;;;5091928;28;20054;-74
2022/05/14 05:13:36;;;;;;;38.75;10.23;;;11.60;99.90;;;;;;5092311;28;20051;-74
2022/05/14 05:16:02;;;;;;;39.50;8.82;;;11.50;99.90;;;;;;5092028;28;20052;-74
2022/05/14 05:18:27;;;;;;;44.53;9.48;;;11.40;99.90;;;;;;5091293;28;20510;-75
2022/05/14 05:20:55;;;;;;;38.78;9.65;;;11.50;99.90;;;;;;5091745;28;20040;-73
2022/05/14 05:23:23;;;;;;;41.75;9.15;;;11.50;99.90;;;;;;5091426;28;20076;-75
2022/05/14 05:25:49;;;;;;;30.70;9.18;;;11.60;99.90;;;;;;5091740;28;20047;-74
2022/05/14 05:28:16;;;;;;;47.20;9.63;;;11.60;99.90;;;;;;5089806;28;20122;-74
2022/05/14 05:30:42;;;;;;;34.42;9.80;;;11.80;99.90;;;;;;5091468;28;20047;-73
2022/05/14 05:33:12;;;;;;;39.58;9.32;;;11.80;99.90;;;;;;5073290;28;20047;-70
2022/05/14 05:35:38;;;;;;;41.17;9.57;;;11.80;99.90;;;;;;5091186;28;20040;-73
2022/05/14 05:38:03;;;;;;;35.83;9.20;;;11.90;99.90;;;;;;5091624;28;20047;-73
2022/05/14 05:40:29;;;;;;;38.50;8.95;;;11.90;99.90;;;;;;5091610;28;20051;-73
2022/05/14 05:42:55;;;;;;;31.67;8.65;;;11.90;99.90;;;;;;5091243;28;20105;-74
2022/05/14 05:45:20;;;;;;;37.65;9.50;;;12.00;99.90;;;;;;5091486;28;20036;-74
2022/05/14 05:47:46;;;;;;;37.78;9.23;;;12.00;99.90;;;;;;5090925;28;20048;-74
2022/05/14 05:50:13;;;;;;;43.70;9.15;;;12.10;99.90;;;;;;5091026;28;20075;-72
2022/05/14 05:52:38;;;;;;;32.60;8.52;;;12.20;99.90;;;;;;5072941;28;20056;-74
2022/05/14 05:57:49;;;;;;;39.88;8.48;;;12.20;99.90;;;;;;5090912;28;20090;-73
2022/05/14 06:00:24;;;;;;;39.90;10.35;;;12.20;99.90;;;;;;5091294;28;20067;-73
2022/05/14 06:02:50;;;;;;;36.20;9.18;;;12.30;99.90;;;;;;5091226;28;20055;-73
2022/05/14 06:05:16;;;;;;;27.85;8.35;;;12.30;99.90;;;;;;5090829;28;20043;-72
2022/05/14 06:07:42;;;;;;;35.38;9.50;;;12.40;99.90;;;;;;5090711;28;20048;-69
2022/05/14 06:10:12;;;;;;;41.25;9.40;;;12.40;99.90;;;;;;5073114;28;20055;-73
2022/05/14 06:12:38;;;;;;;32.42;9.15;;;12.50;99.90;;;;;;5090869;28;20093;-71
2022/05/14 06:15:09;;;;;;;40.50;9.23;;;12.50;99.90;;;;;;5090664;28;20717;-68
2022/05/14 06:17:35;;;;;;;33.38;8.05;;;12.60;99.90;;;;;;5090761;28;20044;-72
2022/05/14 06:20:06;;;;;;;37.75;7.80;;;12.70;99.90;;;;;;5071939;28;20036;-74
2022/05/14 06:22:32;;;;;;;31.55;7.35;;;12.70;99.90;;;;;;5090673;28;20040;-73
2022/05/14 06:24:57;;;;;;;29.63;6.82;;;12.70;99.90;;;;;;5090732;28;20508;-77
2022/05/14 06:27:23;;;;;;;29.58;7.93;;;12.80;99.90;;;;;;5090225;28;20135;-73
2022/05/14 06:29:48;;;;;;;33.90;7.22;;;12.90;99.90;;;;;;5090773;28;20040;-70
2022/05/14 06:32:14;;;;;;;33.53;6.90;;;12.90;99.90;;;;;;5090470;28;20403;-76
2022/05/14 06:34:40;;;;;;;35.75;7.72;;;13.10;99.90;;;;;;5071967;28;20224;-71
2022/05/14 06:37:05;;;;;;;27.70;7.30;;;13.20;99.90;;;;;;5090837;28;20042;-71
2022/05/14 06:39:31;;;;;;;33.15;6.75;;;13.30;99.90;;;;;;5090429;28;20574;-72
2022/05/14 06:41:58;;;;;;;24.55;6.35;;;13.40;99.90;;;;;;5072584;28;20058;-74
2022/05/14 06:44:27;;;;;;;31.05;6.88;;;13.60;99.90;;;;;;5090095;28;20083;-73
2022/05/14 06:46:53;;;;;;;32.53;7.60;;;13.70;99.90;;;;;;5089932;28;20050;-73
2022/05/14 06:49:18;;;;;;;37.28;7.00;;;13.90;99.90;;;;;;5090262;28;20040;-74
2022/05/14 06:51:44;;;;;;;35.95;6.47;;;14.10;99.90;;;;;;5090453;28;20047;-75
2022/05/14 06:54:11;;;;;;;27.33;6.10;;;14.20;99.90;;;;;;5072402;28;20120;-74
2022/05/14 06:56:41;;;;;;;25.15;5.93;;;14.50;99.90;;;;;;5090239;28;20044;-71
2022/05/14 06:59:07;;;;;;;32.83;5.90;;;14.60;99.90;;;;;;5089983;28;20052;-72
2022/05/14 07:01:37;;;;;;;30.40;5.68;;;14.80;99.90;;;;;;5090335;28;20455;-75
2022/05/14 07:06:49;;;;;;;28.92;5.45;;;14.90;99.90;;;;;;5089985;28;20105;-73
2022/05/14 07:09:18;;;;;;;32.05;5.47;;;15.10;99.90;;;;;;5090353;28;20061;-71
2022/05/14 07:11:47;;;;;;;25.90;6.00;;;15.20;99.90;;;;;;5090286;28;20126;-70
2022/05/14 07:14:16;;;;;;;24.98;5.10;;;15.20;99.90;;;;;;5071601;28;20048;-73
2022/05/14 07:16:43;;;;;;;24.23;5.20;;;15.30;99.90;;;;;;5090045;28;20093;-73
2022/05/14 07:19:09;;;;;;;26.10;4.80;;;15.50;99.90;;;;;;5069269;28;20040;-74
2022/05/14 07:21:40;;;;;;;26.75;4.93;;;15.50;99.90;;;;;;5089812;28;20079;-73
2022/05/14 07:24:08;;;;;;;26.80;4.95;;;15.70;99.90;;;;;;5090211;28;20064;-73
2022/05/14 07:26:39;;;;;;;28.00;5.18;;;15.70;99.90;;;;;;5071827;28;20086;-74
2022/05/14 07:29:10;;;;;;;30.60;5.78;;;15.90;99.90;;;;;;5089416;28;20537;-73
2022/05/14 07:31:36;;;;;;;27.77;6.20;;;15.90;99.90;;;;;;5089842;28;20127;-70
2022/05/14 07:34:03;;;;;;;17.35;4.28;;;15.90;99.90;;;;;;5071579;28;20769;-73
2022/05/14 07:36:32;;;;;;;22.15;4.43;;;16.00;99.90;;;;;;5090186;28;20459;-74
2022/05/14 07:39:03;;;;;;;21.90;4.45;;;16.10;99.90;;;;;;5089843;28;20047;-66
2022/05/14 07:41:29;;;;;;;28.95;5.07;;;16.30;99.90;;;;;;5088459;28;20124;-71
2022/05/14 07:43:58;;;;;;;24.13;5.40;;;16.50;99.90;;;;;;5089864;28;20101;-71
2022/05/14 07:46:29;;;;;;;25.20;5.03;;;16.60;99.90;;;;;;5089009;28;20437;-74
2022/05/14 07:48:58;;;;;;;19.13;4.22;;;16.70;99.90;;;;;;5075722;28;20059;-74
2022/05/14 07:51:25;;;;;;;24.23;4.95;;;16.90;99.90;;;;;;5093454;28;20040;-73
2022/05/14 07:53:51;;;;;;;26.23;5.30;;;17.00;99.90;;;;;;5093724;28;20043;-73
2022/05/14 07:56:17;;;;;;;22.65;4.90;;;17.20;99.90;;;;;;5093467;28;20099;-72
2022/05/14 07:58:44;;;;;;;19.85;4.13;;;17.10;99.90;;;;;;5092943;28;20511;-74
2022/05/14 08:01:11;;;;;;;22.17;4.13;;;17.40;99.90;;;;;;5068343;28;20052;-73
2022/05/14 08:03:36;;;;;;;17.98;4.13;;;17.40;99.90;;;;;;5073171;28;20098;-75
2022/05/14 08:06:02;;;;;;;26.33;5.50;;;17.80;99.90;;;;;;5091470;28;20052;-75
2022/05/14 08:08:28;;;;;;;21.27;4.65;;;17.60;99.90;;;;;;5093037;28;20396;-73
2022/05/14 08:10:55;;;;;;;20.38;5.55;;;17.70;99.90;;;;;;5092780;28;20089;-74
2022/05/14 08:13:23;;;;;;;24.95;5.85;;;17.80;99.90;;;;;;5092881;28;20052;-73
2022/05/14 08:15:50;;;;;;;21.90;4.75;;;18.10;99.90;;;;;;5092493;28;20040;-76
2022/05/14 08:18:16;;;;;;;20.35;4.40;;;18.20;99.90;;;;;;5093363;28;20036;-73
2022/05/14 08:20:43;;;;;;;21.17;4.38;;;18.30;99.90;;;;;;5092233;28;20040;-73
2022/05/14 08:25:58;;;;;;;30.70;5.32;;;18.60;99.90;;;;;;5074931;28;20059;-74
2022/05/14 08:28:24;;;;;;;21.90;5.10;;;18.70;99.90;;;;;;5074678;28;20510;-74
2022/05/14 08:30:50;;;;;;;22.77;5.18;;;18.80;99.90;;;;;;5093051;28;20212;-76
2022/05/14 08:33:15;;;;;;;24.50;4.78;;;19.10;99.90;;;;;;5073787;28;20510;-77
2022/05/14 08:35:42;;;;;;;24.08;5.07;;;19.00;99.90;;;;;;5092869;28;20044;-69
2022/05/14 08:38:11;;;;;;;25.77;5.35;;;19.20;99.90;;;;;;5074552;28;20083;-70
2022/05/14 08:40:40;;;;;;;22.95;4.78;;;19.30;99.90;;;;;;5092739;28;20040;-69
2022/05/14 08:43:17;;;;;;;20.13;5.00;;;19.30;99.90;;;;;;5092643;28;20047;-68
2022/05/14 08:45:44;;;;;;;20.00;4.03;;;19.10;99.90;;;;;;5074463;28;20056;-70
2022/05/14 08:48:19;;;;;;;23.98;4.68;;;19.20;99.90;;;;;;5091722;28;20047;-69
2022/05/14 08:50:49;;;;;;;;;;;19.50;99.90;;;;;;5092884;28;20119;-71
2022/05/14 08:53:16;;;;;;;21.33;4.85;;;19.60;99.90;;;;;;5092166;28;20005;-75
2022/05/14 08:55:52;;;;;;;24.17;5.10;;;19.50;99.90;;;;;;5091242;28;20044;-75
2022/05/14 08:58:27;;;;;;;22.83;4.70;;;19.70;99.90;;;;;;5090132;28;20071;-74
2022/05/14 09:00:57;;;;;;;26.27;5.30;;;19.50;99.90;;;;;;5092191;28;20048;-72
2022/05/14 09:03:23;;;;;;;21.17;4.63;;;19.60;99.90;;;;;;5092008;28;20055;-74
2022/05/14 09:05:55;;;;;;;18.13;3.90;;;19.40;99.90;;;;;;5073775;28;20036;-71
2022/05/14 09:08:21;;;;;;;23.17;4.70;;;19.50;99.90;;;;;;5073685;28;20059;-73
2022/05/14 09:10:59;;;;;;;24.33;5.07;;;19.70;99.90;;;;;;5074076;28;20043;-71
2022/05/14 09:13:25;;;;;;;24.08;4.68;;;19.70;99.90;;;;;;5092297;28;20127;-72
2022/05/14 09:16:02;;;;;;;24.83;5.03;;;19.90;99.90;;;;;;5092242;28;20122;-69
2022/05/14 09:18:31;;;;;;;17.98;4.43;;;20.00;99.90;;;;;;5092035;28;20040;-74
2022/05/14 09:20:59;;;;;;;20.52;4.63;;;19.80;99.90;;;;;;5073705;28;20502;-75
2022/05/14 09:23:41;;;;;;;23.20;4.75;;;19.70;99.90;;;;;;5073809;28;20052;-71
2022/05/14 09:26:30;;;;;;;29.35;5.68;;;19.50;99.90;;;;;;5091986;28;20115;-72
2022/05/14 09:29:12;;;;;;;21.98;4.63;;;19.40;99.90;;;;;;5091557;28;20499;-72
2022/05/14 09:31:59;;;;;;;25.30;5.32;;;19.40;99.90;;;;;;5091934;28;20092;-75
2022/05/14 09:34:26;;;;;;;22.65;5.32;;;19.30;99.90;;;;;;5091226;28;20051;-75
2022/05/14 09:36:52;;;;;;;24.15;5.38;;;19.40;99.90;;;;;;5091559;28;20135;-74
2022/05/14 09:39:23;;;;;;;21.23;4.70;;;19.50;99.90;;;;;;5072525;28;20134;-75
2022/05/14 09:41:51;;;;;;;23.67;4.95;;;19.10;99.90;;;;;;5073325;28;20051;-74
2022/05/14 09:44:30;;;;;;;23.45;5.38;;;19.00;99.90;;;;;;5091403;28;20483;-74
2022/05/14 09:47:11;;;;;;;25.17;5.68;;;19.00;99.90;;;;;;5091404;28;20055;-72
2022/05/14 09:49:41;;;;;;;21.98;4.88;;;19.30;99.90;;;;;;5090440;28;20520;-72
2022/05/14 09:52:13;;;;;;;29.25;5.90;;;19.60;99.90;;;;;;5073279;28;20146;-69
2022/05/14 09:54:50;;;;;;;22.10;4.93;;;20.00;99.90;;;;;;5091583;28;20127;-73
2022/05/14 09:57:15;;;;;;;24.50;5.03;;;20.00;99.90;;;;;;5083680;28;20052;-73
2022/05/14 10:00:05;;;;;;;21.15;5.00;;;19.60;99.90;;;;;;5091200;28;20066;-76
2022/05/14 10:03:00;;;;;;;37.80;5.53;;;19.10;99.90;;;;;;5090850;28;20051;-77
2022/05/14 10:05:38;;;;;;;20.65;5.25;;;18.80;99.90;;;;;;5072955;28;20506;-73
2022/05/14 10:08:34;;;;;;;23.92;5.60;;;19.00;99.90;;;;;;5056141;28;20051;-75
2022/05/14 10:11:03;;;;;;;19.85;4.80;;;19.40;99.90;;;;;;5090662;28;20044;-75
2022/05/14 10:13:45;;;;;;;25.35;5.90;;;19.60;99.90;;;;;;5072819;28;20054;-74
2022/05/14 10:16:23;;;;;;;22.67;5.13;;;19.60;99.90;;;;;;5091055;28;20119;-72
2022/05/14 10:18:54;;;;;;;21.83;4.65;;;19.60;99.90;;;;;;5090995;28;20046;-74
2022/05/14 10:21:26;;;;;;;27.15;5.50;;;19.60;99.90;;;;;;5090589;28;20444;-70
2022/05/14 10:27:05;;;;;;;19.15;4.47;;;19.50;99.90;;;;;;5090776;28;20123;-75
2022/05/14 10:29:53;;;;;;;23.30;5.40;;;20.00;99.90;;;;;;5090739;28;20166;-76
2022/05/14 10:32:20;;;;;;;18.95;4.38;;;20.10;99.90;;;;;;5090825;28;20086;-75
2022/05/14 10:34:52;;;;;;;21.60;4.18;;;20.20;99.90;;;;;;5090526;28;20112;-75
2022/05/14 10:37:32;;;;;;;20.77;4.85;;;20.00;99.90;;;;;;5072445;28;20471;-74
2022/05/14 10:40:10;;;;;;;26.45;5.43;;;19.70;99.90;;;;;;5090754;28;20047;-73
2022/05/14 10:42:53;;;;;;;22.75;4.60;;;19.60;99.90;;;;;;5090645;28;20153;-74
2022/05/14 10:45:31;;;;;;;24.17;5.00;;;19.60;99.90;;;;;;5090919;28;20046;-72
2022/05/14 10:48:03;;;;;;;21.80;4.53;;;19.50;99.90;;;;;;5090666;28;20101;-71
2022/05/14 10:50:29;;;;;;;20.05;4.50;;;19.50;99.90;;;;;;5090078;28;20040;-71
2022/05/14 10:52:56;;;;;;;21.77;4.50;;;19.30;99.90;;;;;;5072191;28;20048;-75
2022/05/14 10:55:32;;;;;;;23.48;4.50;;;19.30;99.90;;;;;;5090561;28;20035;-74
2022/05/14 10:58:03;;;;;;;21.35;4.40;;;19.30;99.90;;;;;;5090365;28;20044;-71
2022/05/14 11:00:28;;;;;;;22.00;4.95;;;19.10;99.90;;;;;;5068733;28;20056;-73
2022/05/14 11:02:59;;;;;;;21.17;5.05;;;19.50;99.90;;;;;;5087246;28;20052;-74
2022/05/14 11:05:28;;;;;;;20.90;5.30;;;19.90;99.90;;;;;;5072387;28;20048;-72
2022/05/14 11:07:53;;;;;;;21.45;5.15;;;20.20;99.90;;;;;;5090131;28;20048;-73
2022/05/14 11:10:33;;;;;;;24.33;5.40;;;20.60;99.90;;;;;;5090518;28;20043;-73
2022/05/14 11:13:17;;;;;;;23.73;4.88;;;20.50;99.90;;;;;;5090167;28;20748;-72
2022/05/14 11:15:43;;;;;;;26.92;5.07;;;20.20;99.90;;;;;;5090162;28;20036;-70
2022/05/14 11:18:15;;;;;;;19.85;4.38;;;20.00;99.90;;;;;;5090142;28;20044;-75
2022/05/14 11:21:00;;;;;;;24.73;5.30;;;20.10;99.90;;;;;;5071998;28;20135;-75
2022/05/14 11:23:27;;;;;;;23.30;5.68;;;20.10;99.90;;;;;;5093814;28;20510;-71
2022/05/14 11:26:05;;;;;;;28.25;5.97;;;20.30;99.90;;;;;;5093979;28;20059;-74
2022/05/14 11:28:31;;;;;;;22.17;4.93;;;21.00;99.90;;;;;;5093911;28;20044;-73
2022/05/14 11:31:21;;;;;;;22.13;5.05;;;21.20;99.90;;;;;;5093946;28;20070;-71
2022/05/14 11:33:49;;;;;;;20.10;5.25;;;21.40;99.90;;;;;;5076097;28;20056;-74
2022/05/14 11:36:20;;;;;;;28.42;6.03;;;21.60;99.90;;;;;;5093774;28;20564;-72
2022/05/14 11:39:12;;;;;;;25.05;4.57;;;21.50;99.90;;;;;;5093617;28;20048;-73
2022/05/14 11:41:38;;;;;;;20.13;4.75;;;21.90;99.90;;;;;;5075876;28;20148;-74
2022/05/14 11:44:06;;;;;;;21.27;4.60;;;22.10;99.90;;;;;;5093980;28;20448;-72
2022/05/14 11:46:41;;;;;;;20.33;5.15;;;21.80;99.90;;;;;;5075461;28;20056;-74
2022/05/14 11:49:12;;;;;;;18.95;4.47;;;21.70;99.60;;;;;;5093812;28;20051;-73
2022/05/14 11:51:38;;;;;;;22.00;5.30;;;21.50;99.60;;;;;;5075991;28;20044;-73
2022/05/14 11:54:13;;;;;;;24.08;5.95;;;22.10;99.90;;;;;;5075289;28;20044;-72
2022/05/14 11:56:55;;;;;;;20.63;4.40;;;22.10;99.90;;;;;;5076094;28;20036;-76
2022/05/14 11:59:41;;;;;;;20.70;4.53;;;22.00;99.00;;;;;;5093467;28;20056;-74
2022/05/14 12:02:16;;;;;;;21.88;4.63;;;22.10;98.60;;;;;;5093425;28;20055;-73
2022/05/14 12:04:46;;;;;;;22.50;4.50;;;22.30;99.00;;;;;;5093686;28;20082;-74
2022/05/14 12:07:22;;;;;;;24.05;4.57;;;22.10;98.10;;;;;;5059013;28;20046;-70
2022/05/14 12:10:13;;;;;;;21.80;5.20;;;21.80;97.20;;;;;;5092924;28;20123;-73
2022/05/14 12:13:00;;;;;;;22.30;5.10;;;22.20;98.20;;;;;;5093350;28;20043;-73
2022/05/14 12:15:29;;;;;;;23.55;4.72;;;22.00;98.60;;;;;;5093103;28;20557;-72
2022/05/14 12:17:57;;;;;;;21.17;4.45;;;21.80;98.70;;;;;;5093064;28;20060;-73
2022/05/14 12:20:27;;;;;;;24.05;5.00;;;21.60;97.80;;;;;;5093092;28;20043;-72
2022/05/14 12:23:05;;;;;;;19.92;4.55;;;21.80;98.40;;;;;;5092820;28;20050;-73
2022/05/14 12:25:49;;;;;;;25.27;4.78;;;21.60;98.70;;;;;;5092599;28;20044;-73
2022/05/14 12:28:37;;;;;;;20.13;4.82;;;21.70;97.30;;;;;;5092845;28;20044;-74
2022/05/14 12:33:56;;;;;;;17.17;4.60;;;21.30;96.10;;;;;;5092433;28;20124;-74
2022/05/14 12:36:23;;;;;;;21.15;4.25;;;20.80;97.40;;;;;;5092833;28;20055;-72
2022/05/14 12:38:49;;;;;;;22.02;4.93;;;20.60;97.80;;;;;;5092594;28;20051;-75
2022/05/14 12:41:41;;;;;;;19.90;5.32;;;20.60;98.10;;;;;;5092564;28;20044;-73
2022/05/14 12:44:22;;;;;;;25.60;5.15;;;20.60;97.30;;;;;;5069956;28;20059;-73
2022/05/14 12:46:54;;;;;;;20.17;4.65;;;20.60;98.40;;;;;;5092421;28;20082;-72
2022/05/14 12:49:33;;;;;;;18.92;5.03;;;20.50;97.80;;;;;;5092707;28;20105;-75
2022/05/14 12:52:05;;;;;;;20.35;4.30;;;20.40;97.10;;;;;;5074163;28;20106;-74
2022/05/14 12:54:33;;;;;;;17.08;4.82;;;20.20;97.00;;;;;;5092236;28;20101;-74
2022/05/14 12:57:03;;;;;;;26.02;4.80;;;20.20;98.70;;;;;;5092427;28;20145;-72
2022/05/14 12:59:29;;;;;;;24.83;4.78;;;20.20;98.60;;;;;;5073882;28;20134;-74
2022/05/14 13:02:00;;;;;;;20.42;5.28;;;20.20;99.00;;;;;;5091566;28;20475;-75
2022/05/14 13:05:09;;;;;;;22.50;4.82;;;20.00;98.90;;;;;;5091377;28;20079;-75
2022/05/14 13:08:02;;;;;;;25.13;5.07;;;20.00;98.00;;;;;;4988664;28;20066;-75